createdAt,value
2023-04-09T00:00:49.274Z,28.80
2023-04-09T00:03:17.526Z,28.70
2023-04-09T00:05:45.742Z,28.70
2023-04-09T00:08:14.060Z,28.50
2023-04-09T00:10:42.346Z,28.30
2023-04-09T00:13:10.564Z,28.20
2023-04-09T00:15:38.754Z,28.10
2023-04-09T00:18:07.031Z,28.10
2023-04-09T00:20:35.233Z,28.30
2023-04-09T00:23:03.502Z,28.50
2023-04-09T00:25:31.854Z,28.60
2023-04-09T00:27:59.992Z,28.40
2023-04-09T00:30:32.123Z,28.20
2023-04-09T00:33:00.061Z,28.00
2023-04-09T00:35:28.235Z,28.00
2023-04-09T00:37:56.611Z,28.20
2023-04-09T00:40:24.894Z,28.50
2023-04-09T00:42:53.143Z,28.70
2023-04-09T00:45:21.394Z,28.60
2023-04-09T00:47:49.662Z,28.40
2023-04-09T00:50:17.897Z,28.30
2023-04-09T00:52:46.725Z,28.50
2023-04-09T00:55:15.470Z,28.40
2023-04-09T00:57:43.551Z,28.30
2023-04-09T01:00:12.391Z,28.30
2023-04-09T01:02:42.888Z,28.50
2023-04-09T01:05:13.030Z,28.50
2023-04-09T01:08:22.799Z,28.30
2023-04-09T01:11:14.733Z,28.40
2023-04-09T01:13:57.847Z,28.50
2023-04-09T01:16:26.537Z,28.20
2023-04-09T01:19:01.663Z,27.90
2023-04-09T01:21:33.169Z,27.90
2023-04-09T01:24:25.509Z,27.90
2023-04-09T01:27:05.967Z,27.90
2023-04-09T01:29:55.248Z,27.90
2023-04-09T01:32:24.368Z,28.10
2023-04-09T01:34:53.680Z,28.30
2023-04-09T01:37:22.829Z,28.20
2023-04-09T01:39:51.356Z,28.20
2023-04-09T01:42:20.323Z,28.00
2023-04-09T01:44:49.392Z,27.80
2023-04-09T01:47:17.731Z,27.60
2023-04-09T01:49:46.438Z,27.40
2023-04-09T01:52:15.062Z,27.70
2023-04-09T01:54:43.800Z,27.80
2023-04-09T01:57:12.247Z,28.00
2023-04-09T01:59:40.507Z,28.10
2023-04-09T02:02:19.439Z,27.90
2023-04-09T02:04:54.499Z,27.70
2023-04-09T02:07:35.291Z,27.60
2023-04-09T02:10:04.269Z,27.50
2023-04-09T02:12:34.264Z,27.70
2023-04-09T02:15:03.550Z,27.80
2023-04-09T02:17:32.204Z,27.90
2023-04-09T02:20:00.436Z,27.90
2023-04-09T02:22:28.603Z,27.90
2023-04-09T02:24:56.908Z,27.90
2023-04-09T02:27:25.089Z,27.70
2023-04-09T02:29:53.295Z,27.60
2023-04-09T02:32:21.632Z,27.70
2023-04-09T02:34:49.905Z,27.80
2023-04-09T02:37:18.234Z,27.70
2023-04-09T02:39:48.371Z,27.60
2023-04-09T02:42:16.637Z,27.30
2023-04-09T02:44:44.812Z,27.20
2023-04-09T02:47:14.433Z,27.30
2023-04-09T02:49:42.891Z,27.20
2023-04-09T02:52:11.527Z,27.50
2023-04-09T02:54:39.958Z,27.50
2023-04-09T02:57:08.253Z,27.70
2023-04-09T02:59:36.438Z,27.70
2023-04-09T03:02:04.830Z,27.70
2023-04-09T03:04:33.306Z,27.40
2023-04-09T03:07:01.453Z,27.20
2023-04-09T03:09:29.686Z,27.10
2023-04-09T03:11:58.109Z,27.10
2023-04-09T03:14:26.339Z,27.30
2023-04-09T03:16:55.600Z,27.60
2023-04-09T03:19:23.648Z,27.70
2023-04-09T03:21:51.955Z,27.50
2023-04-09T03:24:25.043Z,27.60
2023-04-09T03:26:53.808Z,27.50
2023-04-09T03:29:21.924Z,27.60
2023-04-09T03:31:50.194Z,27.60
2023-04-09T03:34:18.491Z,27.50
2023-04-09T03:36:52.049Z,27.30
2023-04-09T03:39:25.003Z,27.20
2023-04-09T03:41:53.308Z,27.10
2023-04-09T03:44:21.469Z,27.10
2023-04-09T03:47:15.420Z,27.20
2023-04-09T03:49:43.920Z,27.30
2023-04-09T03:52:25.715Z,27.30
2023-04-09T03:55:03.405Z,27.40
2023-04-09T03:57:31.698Z,27.40
2023-04-09T04:00:00.192Z,27.30
2023-04-09T04:02:29.213Z,27.00
2023-04-09T04:05:02.342Z,27.10
2023-04-09T04:07:36.579Z,27.20
2023-04-09T04:10:10.825Z,27.10
2023-04-09T04:12:43.307Z,27.20
2023-04-09T04:15:32.726Z,27.10
2023-04-09T04:18:01.300Z,26.80
2023-04-09T04:20:58.351Z,26.50
2023-04-09T04:23:26.766Z,26.40
2023-04-09T04:26:02.672Z,26.40
2023-04-09T04:28:37.542Z,26.50
2023-04-09T04:31:11.128Z,26.60
2023-04-09T04:33:41.722Z,26.60
2023-04-09T04:36:15.524Z,26.50
2023-04-09T04:38:48.431Z,26.40
2023-04-09T04:41:31.911Z,26.40
2023-04-09T04:44:23.003Z,26.20
2023-04-09T04:46:57.835Z,26.00
2023-04-09T04:49:26.087Z,26.00
2023-04-09T04:51:54.271Z,25.90
2023-04-09T04:54:22.654Z,25.90
2023-04-09T04:56:54.636Z,26.20
2023-04-09T04:59:38.567Z,26.30
2023-04-09T05:02:08.842Z,26.40
2023-04-09T05:04:47.784Z,26.30
2023-04-09T05:07:18.861Z,26.00
2023-04-09T05:09:53.979Z,26.00
2023-04-09T05:12:22.496Z,26.00
2023-04-09T05:14:53.497Z,26.00
2023-04-09T05:17:21.713Z,26.20
2023-04-09T05:19:53.919Z,26.30
2023-04-09T05:22:28.649Z,26.40
2023-04-09T05:24:57.108Z,26.50
2023-04-09T05:27:26.032Z,26.40
2023-04-09T05:30:00.769Z,26.50
2023-04-09T05:32:29.485Z,26.40
2023-04-09T05:34:58.894Z,26.20
2023-04-09T05:37:28.343Z,25.90
2023-04-09T05:39:57.389Z,25.90
2023-04-09T05:42:26.471Z,26.00
2023-04-09T05:45:04.361Z,26.20
2023-04-09T05:47:33.171Z,26.40
2023-04-09T05:50:10.325Z,26.40
2023-04-09T05:52:38.881Z,26.10
2023-04-09T05:55:07.306Z,25.80
2023-04-09T05:57:59.318Z,25.90
2023-04-09T06:00:27.847Z,25.90
2023-04-09T06:02:56.144Z,26.00
2023-04-09T06:05:24.451Z,26.10
2023-04-09T06:07:53.083Z,26.10
2023-04-09T06:10:21.627Z,25.90
2023-04-09T06:12:50.250Z,25.80
2023-04-09T06:15:18.594Z,25.60
2023-04-09T06:17:46.854Z,25.50
2023-04-09T06:20:15.207Z,25.30
2023-04-09T06:22:43.516Z,25.30
2023-04-09T06:25:11.706Z,25.30
2023-04-09T06:27:40.146Z,25.60
2023-04-09T06:30:09.330Z,25.70
2023-04-09T06:32:46.897Z,25.80
2023-04-09T06:35:20.878Z,25.50
2023-04-09T06:37:49.150Z,25.30
2023-04-09T06:40:17.292Z,25.30
2023-04-09T06:42:45.709Z,25.40
2023-04-09T06:45:23.825Z,25.60
2023-04-09T06:47:52.220Z,25.90
2023-04-09T06:50:20.634Z,26.00
2023-04-09T06:52:48.774Z,25.90
2023-04-09T06:55:17.317Z,25.40
2023-04-09T06:57:45.614Z,25.40
2023-04-09T07:00:14.558Z,25.50
2023-04-09T07:02:43.016Z,25.60
2023-04-09T07:05:11.882Z,25.80
2023-04-09T07:07:40.074Z,26.10
2023-04-09T07:10:08.863Z,26.30
2023-04-09T07:12:37.012Z,26.20
2023-04-09T07:15:06.965Z,26.00
2023-04-09T07:17:35.899Z,25.90
2023-04-09T07:20:04.330Z,26.00
2023-04-09T07:22:32.541Z,26.00
2023-04-09T07:25:07.902Z,26.10
2023-04-09T07:27:36.279Z,26.30
2023-04-09T07:30:04.706Z,26.40
2023-04-09T07:32:32.821Z,26.50
2023-04-09T07:35:01.113Z,26.50
2023-04-09T07:37:29.280Z,26.50
2023-04-09T07:39:57.661Z,26.10
2023-04-09T07:42:25.781Z,26.10
2023-04-09T07:44:54.166Z,26.00
2023-04-09T07:47:23.198Z,26.00
2023-04-09T07:49:51.446Z,26.40
2023-04-09T07:52:19.831Z,26.90
2023-04-09T07:54:47.887Z,27.20
2023-04-09T07:57:16.170Z,27.10
2023-04-09T07:59:44.312Z,26.90
2023-04-09T08:02:14.876Z,26.80
2023-04-09T08:04:43.669Z,26.80
2023-04-09T08:07:12.042Z,27.20
2023-04-09T08:09:40.301Z,27.60
2023-04-09T08:12:08.594Z,27.60
2023-04-09T08:14:36.918Z,27.90
2023-04-09T08:17:05.500Z,27.90
2023-04-09T08:19:33.846Z,27.90
2023-04-09T08:22:02.506Z,27.90
2023-04-09T08:24:31.086Z,28.00
2023-04-09T08:26:59.173Z,28.10
2023-04-09T08:29:27.979Z,28.00
2023-04-09T08:31:56.431Z,28.00
2023-04-09T08:34:24.733Z,27.80
2023-04-09T08:36:52.971Z,27.60
2023-04-09T08:39:21.273Z,27.40
2023-04-09T08:41:51.158Z,27.50
2023-04-09T08:44:19.476Z,27.40
2023-04-09T08:46:47.707Z,27.50
2023-04-09T08:49:16.131Z,27.60
2023-04-09T08:51:47.638Z,27.60
2023-04-09T08:54:19.329Z,27.50
2023-04-09T08:56:48.325Z,27.60
2023-04-09T08:59:17.399Z,27.60
2023-04-09T09:01:45.721Z,27.70
2023-04-09T09:04:14.197Z,27.90
2023-04-09T09:06:42.894Z,27.70
2023-04-09T09:09:13.329Z,27.80
2023-04-09T09:11:49.485Z,28.00
2023-04-09T09:14:19.540Z,28.10
2023-04-09T09:16:57.113Z,27.90
2023-04-09T09:19:25.421Z,28.00
2023-04-09T09:21:58.033Z,28.40
2023-04-09T09:24:26.549Z,28.90
2023-04-09T09:26:55.262Z,29.60
2023-04-09T09:29:23.454Z,30.60
2023-04-09T09:31:53.959Z,31.00
2023-04-09T09:34:23.590Z,30.80
2023-04-09T09:36:52.084Z,30.40
2023-04-09T09:39:21.530Z,30.00
2023-04-09T09:42:07.136Z,29.70
2023-04-09T09:44:35.422Z,30.00
2023-04-09T09:47:05.267Z,29.90
2023-04-09T09:49:33.725Z,29.80
2023-04-09T09:52:03.433Z,30.10
2023-04-09T09:54:43.060Z,30.00
2023-04-09T09:57:12.439Z,29.90
2023-04-09T10:00:04.876Z,29.90
2023-04-09T10:02:58.124Z,30.00
2023-04-09T10:05:26.931Z,30.30
2023-04-09T10:07:58.530Z,30.10
2023-04-09T10:10:27.909Z,30.30
2023-04-09T10:12:56.634Z,30.30
2023-04-09T10:15:26.078Z,30.00
2023-04-09T10:17:55.656Z,30.20
2023-04-09T10:20:46.970Z,30.40
2023-04-09T10:23:25.080Z,30.60
2023-04-09T10:25:54.784Z,31.00
2023-04-09T10:28:24.465Z,30.90
2023-04-09T10:30:54.652Z,31.10
2023-04-09T10:33:25.100Z,31.50
2023-04-09T10:35:54.882Z,32.00
2023-04-09T10:38:38.979Z,32.40
2023-04-09T10:41:32.216Z,32.80
2023-04-09T10:44:00.599Z,33.10
2023-04-09T10:46:31.320Z,33.40
2023-04-09T10:49:16.587Z,33.30
2023-04-09T10:52:01.771Z,33.30
2023-04-09T10:54:36.066Z,32.80
2023-04-09T10:57:20.681Z,32.80
2023-04-09T10:59:50.599Z,32.80
2023-04-09T11:02:40.563Z,32.90
2023-04-09T11:05:18.198Z,32.90
2023-04-09T11:07:52.491Z,32.90
2023-04-09T11:10:21.486Z,33.00
2023-04-09T11:12:50.029Z,32.60
2023-04-09T11:15:21.925Z,32.50
2023-04-09T11:17:50.755Z,32.60
2023-04-09T11:20:22.405Z,32.80
2023-04-09T11:22:55.308Z,33.20
2023-04-09T11:25:29.221Z,33.20
2023-04-09T11:27:58.082Z,33.50
2023-04-09T11:30:26.614Z,33.60
2023-04-09T11:32:54.931Z,33.70
2023-04-09T11:35:26.031Z,33.80
2023-04-09T11:37:57.066Z,33.60
2023-04-09T11:40:26.949Z,33.30
2023-04-09T11:42:57.780Z,33.40
2023-04-09T11:45:30.793Z,33.40
2023-04-09T11:47:59.760Z,33.30
2023-04-09T11:50:28.927Z,33.30
2023-04-09T11:52:57.224Z,32.80
2023-04-09T11:55:27.286Z,32.40
2023-04-09T11:58:00.238Z,32.10
2023-04-09T12:00:30.195Z,32.20
2023-04-09T12:03:06.287Z,32.60
2023-04-09T12:05:35.830Z,32.80
2023-04-09T12:08:07.461Z,32.80
2023-04-09T12:10:38.342Z,33.00
2023-04-09T12:13:11.931Z,33.20
2023-04-09T12:15:42.246Z,33.00
2023-04-09T12:18:12.136Z,33.20
2023-04-09T12:20:42.769Z,33.40
2023-04-09T12:23:12.364Z,33.40
2023-04-09T12:25:42.928Z,33.00
2023-04-09T12:28:13.531Z,33.20
2023-04-09T12:30:41.761Z,33.20
2023-04-09T12:33:13.451Z,33.30
2023-04-09T12:35:41.908Z,33.00
2023-04-09T12:38:10.254Z,32.80
2023-04-09T12:40:39.084Z,32.80
2023-04-09T12:43:07.355Z,33.20
2023-04-09T12:45:35.777Z,33.20
2023-04-09T12:48:03.971Z,33.40
2023-04-09T12:50:32.277Z,33.50
2023-04-09T12:53:00.613Z,33.30
2023-04-09T12:55:28.989Z,33.20
2023-04-09T12:57:57.203Z,33.20
2023-04-09T13:00:25.465Z,33.60
2023-04-09T13:02:53.935Z,33.70
2023-04-09T13:05:22.161Z,33.80
2023-04-09T13:07:50.379Z,33.80
2023-04-09T13:10:18.760Z,33.60
2023-04-09T13:12:46.965Z,33.70
2023-04-09T13:15:15.225Z,33.40
2023-04-09T13:17:43.470Z,33.70
2023-04-09T13:20:11.908Z,33.80
2023-04-09T13:22:40.299Z,33.80
2023-04-09T13:25:08.608Z,33.80
2023-04-09T13:27:36.911Z,33.40
2023-04-09T13:30:06.075Z,33.00
2023-04-09T13:32:34.339Z,32.70
2023-04-09T13:35:02.622Z,33.20
2023-04-09T13:37:30.867Z,33.00
2023-04-09T13:39:59.299Z,33.10
2023-04-09T13:42:27.554Z,33.30
2023-04-09T13:44:56.031Z,33.30
2023-04-09T13:47:24.314Z,33.20
2023-04-09T13:49:52.581Z,33.60
2023-04-09T13:52:20.891Z,33.50
2023-04-09T13:54:49.085Z,33.60
2023-04-09T13:57:17.403Z,33.20
2023-04-09T13:59:45.597Z,33.40
2023-04-09T14:02:14.313Z,33.20
2023-04-09T14:04:42.657Z,33.40
2023-04-09T14:07:10.924Z,33.40
2023-04-09T14:09:39.215Z,33.10
2023-04-09T14:12:07.523Z,33.10
2023-04-09T14:14:35.697Z,32.80
2023-04-09T14:17:03.876Z,32.80
2023-04-09T14:19:32.170Z,32.90
2023-04-09T14:22:00.535Z,33.00
2023-04-09T14:24:28.648Z,33.10
2023-04-09T14:26:56.916Z,32.70
2023-04-09T14:29:25.107Z,32.40
2023-04-09T14:31:54.302Z,32.50
2023-04-09T14:34:24.195Z,32.70
2023-04-09T14:36:52.399Z,32.90
2023-04-09T14:39:20.611Z,33.00
2023-04-09T14:41:49.054Z,33.20
2023-04-09T14:44:17.375Z,32.80
2023-04-09T14:46:45.508Z,32.70
2023-04-09T14:49:13.814Z,32.60
2023-04-09T14:51:42.017Z,32.30
2023-04-09T14:54:10.587Z,32.40
2023-04-09T14:56:38.784Z,32.60
2023-04-09T14:59:07.363Z,33.00
2023-04-09T15:01:35.691Z,32.90
2023-04-09T15:04:04.253Z,32.60
2023-04-09T15:06:32.621Z,32.20
2023-04-09T15:09:00.844Z,32.10
2023-04-09T15:11:29.091Z,31.90
2023-04-09T15:13:57.365Z,32.10
2023-04-09T15:16:28.101Z,32.20
2023-04-09T15:18:56.869Z,32.00
2023-04-09T15:21:25.232Z,31.60
2023-04-09T15:23:53.968Z,31.50
2023-04-09T15:26:22.165Z,31.50
2023-04-09T15:28:50.755Z,31.60
2023-04-09T15:31:19.140Z,31.70
2023-04-09T15:33:47.286Z,31.80
2023-04-09T15:36:15.616Z,32.00
2023-04-09T15:38:43.704Z,31.50
2023-04-09T15:41:12.088Z,31.50
2023-04-09T15:43:40.242Z,31.50
2023-04-09T15:46:11.744Z,31.60
2023-04-09T15:48:39.986Z,31.60
2023-04-09T15:51:08.210Z,31.30
2023-04-09T15:53:36.670Z,31.10
2023-04-09T15:56:05.226Z,31.00
2023-04-09T15:58:33.667Z,31.30
2023-04-09T16:01:01.848Z,31.50
2023-04-09T16:03:30.093Z,31.60
2023-04-09T16:05:58.469Z,31.50
2023-04-09T16:08:26.554Z,31.50
2023-04-09T16:10:54.822Z,31.50
2023-04-09T16:13:23.100Z,31.40
2023-04-09T16:15:51.217Z,31.60
2023-04-09T16:18:19.726Z,31.60
2023-04-09T16:20:48.187Z,31.50
2023-04-09T16:23:16.394Z,31.30
2023-04-09T16:25:44.694Z,31.10
2023-04-09T16:28:13.044Z,31.10
2023-04-09T16:30:41.505Z,31.00
2023-04-09T16:33:09.967Z,31.00
2023-04-09T16:35:39.784Z,31.00
2023-04-09T16:38:08.409Z,31.00
2023-04-09T16:40:36.741Z,31.10
2023-04-09T16:43:05.047Z,31.10
2023-04-09T16:45:33.270Z,31.20
2023-04-09T16:48:01.736Z,31.10
2023-04-09T16:50:29.934Z,30.80
2023-04-09T16:52:58.204Z,30.50
2023-04-09T16:55:26.385Z,30.40
2023-04-09T16:57:54.528Z,30.60
2023-04-09T17:00:22.881Z,30.80
2023-04-09T17:02:51.205Z,30.70
2023-04-09T17:05:19.653Z,30.70
2023-04-09T17:07:47.945Z,30.60
2023-04-09T17:10:16.051Z,30.40
2023-04-09T17:12:44.590Z,30.10
2023-04-09T17:15:12.874Z,30.00
2023-04-09T17:17:40.952Z,30.30
2023-04-09T17:20:09.816Z,30.60
2023-04-09T17:22:38.013Z,30.70
2023-04-09T17:25:06.635Z,30.70
2023-04-09T17:27:34.880Z,30.60
2023-04-09T17:30:03.922Z,30.70
2023-04-09T17:32:32.106Z,30.60
2023-04-09T17:35:00.331Z,30.60
2023-04-09T17:37:28.713Z,30.30
2023-04-09T17:39:56.940Z,30.50
2023-04-09T17:42:25.148Z,30.50
2023-04-09T17:44:53.501Z,30.50
2023-04-09T17:47:21.731Z,30.40
2023-04-09T17:49:50.270Z,30.40
2023-04-09T17:52:18.440Z,30.60
2023-04-09T17:54:46.706Z,30.70
2023-04-09T17:57:14.916Z,30.70
2023-04-09T17:59:43.130Z,30.40
2023-04-09T18:02:11.544Z,30.10
2023-04-09T18:04:39.978Z,30.10
2023-04-09T18:07:08.574Z,29.90
2023-04-09T18:09:36.648Z,29.80
2023-04-09T18:12:05.003Z,29.70
2023-04-09T18:14:33.332Z,29.80
2023-04-09T18:17:01.599Z,29.80
2023-04-09T18:19:29.829Z,29.90
2023-04-09T18:21:58.038Z,30.10
2023-04-09T18:24:26.390Z,29.70
2023-04-09T18:26:54.693Z,29.60
2023-04-09T18:29:22.774Z,29.70
2023-04-09T18:31:51.083Z,29.70
2023-04-09T18:34:21.711Z,29.50
2023-04-09T18:36:57.572Z,29.70
2023-04-09T18:39:25.820Z,29.70
2023-04-09T18:41:54.132Z,29.70
2023-04-09T18:44:22.330Z,29.50
2023-04-09T18:46:50.687Z,29.40
2023-04-09T18:49:19.049Z,28.90
2023-04-09T18:51:47.120Z,28.80
2023-04-09T18:54:15.339Z,28.80
2023-04-09T18:56:45.996Z,28.90
2023-04-09T18:59:14.979Z,28.50
2023-04-09T19:01:43.215Z,28.40
2023-04-09T19:04:12.187Z,28.80
2023-04-09T19:06:40.532Z,28.90
2023-04-09T19:09:08.792Z,28.90
2023-04-09T19:11:37.014Z,29.00
2023-04-09T19:14:05.196Z,28.90
2023-04-09T19:16:33.584Z,28.80
2023-04-09T19:19:01.868Z,28.80
2023-04-09T19:21:30.135Z,28.80
2023-04-09T19:23:58.446Z,28.80
2023-04-09T19:26:26.703Z,28.60
2023-04-09T19:28:55.305Z,28.60
2023-04-09T19:31:23.800Z,28.40
2023-04-09T19:33:52.103Z,28.40
2023-04-09T19:36:20.317Z,28.30
2023-04-09T19:38:48.838Z,28.00
2023-04-09T19:41:17.222Z,27.50
2023-04-09T19:43:47.030Z,27.40
2023-04-09T19:46:15.306Z,27.50
2023-04-09T19:48:43.533Z,27.80
2023-04-09T19:51:21.111Z,28.10
2023-04-09T19:53:49.419Z,28.00
2023-04-09T19:56:17.532Z,27.80
2023-04-09T19:58:45.808Z,27.50
2023-04-09T20:01:14.044Z,27.50
2023-04-09T20:03:42.415Z,27.50
2023-04-09T20:06:11.248Z,27.80
2023-04-09T20:08:39.453Z,28.00
2023-04-09T20:11:07.698Z,27.60
2023-04-09T20:13:35.921Z,27.30
2023-04-09T20:16:04.309Z,27.30
2023-04-09T20:18:32.598Z,27.10
2023-04-09T20:21:00.790Z,27.00
2023-04-09T20:23:28.968Z,27.30
2023-04-09T20:25:57.240Z,26.90
2023-04-09T20:28:25.559Z,26.80
2023-04-09T20:30:53.653Z,26.70
2023-04-09T20:33:21.908Z,26.80
2023-04-09T20:35:50.107Z,27.30
2023-04-09T20:38:18.224Z,27.30
2023-04-09T20:40:46.812Z,26.90
2023-04-09T20:43:15.142Z,26.70
2023-04-09T20:45:43.333Z,26.50
2023-04-09T20:48:11.585Z,26.50
2023-04-09T20:50:40.102Z,26.40
2023-04-09T20:53:10.357Z,26.30
2023-04-09T20:55:38.528Z,26.40
2023-04-09T20:58:07.026Z,26.30
2023-04-09T21:00:35.279Z,26.30
2023-04-09T21:03:03.560Z,26.60
2023-04-09T21:05:32.079Z,26.50
2023-04-09T21:08:00.276Z,26.30
2023-04-09T21:10:28.641Z,26.30
2023-04-09T21:12:56.886Z,26.50
2023-04-09T21:15:25.027Z,26.50
2023-04-09T21:17:53.351Z,26.50
2023-04-09T21:20:21.633Z,26.70
2023-04-09T21:22:49.838Z,26.60
2023-04-09T21:25:18.113Z,26.40
2023-04-09T21:27:46.283Z,26.30
2023-04-09T21:30:14.563Z,26.30
2023-04-09T21:32:42.840Z,26.40
2023-04-09T21:35:11.237Z,26.60
2023-04-09T21:37:39.362Z,26.90
2023-04-09T21:40:08.301Z,26.50
2023-04-09T21:42:36.705Z,26.60
2023-04-09T21:45:05.325Z,26.50
2023-04-09T21:47:33.668Z,26.40
2023-04-09T21:50:02.046Z,26.30
2023-04-09T21:52:30.150Z,26.50
2023-04-09T21:54:58.668Z,26.70
2023-04-09T21:57:26.897Z,26.70
2023-04-09T21:59:55.435Z,26.40
2023-04-09T22:02:23.661Z,26.30
2023-04-09T22:04:51.979Z,26.10
2023-04-09T22:07:20.587Z,26.20
2023-04-09T22:09:48.836Z,26.40
2023-04-09T22:12:17.280Z,26.60
2023-04-09T22:14:45.618Z,26.10
2023-04-09T22:17:13.890Z,25.90
2023-04-09T22:19:42.299Z,25.90
2023-04-09T22:22:10.480Z,25.70
2023-04-09T22:24:38.917Z,25.70
2023-04-09T22:27:07.555Z,25.60
2023-04-09T22:29:35.939Z,25.90
2023-04-09T22:32:04.054Z,26.00
2023-04-09T22:34:32.353Z,25.60
2023-04-09T22:37:00.773Z,26.10
2023-04-09T22:39:29.060Z,26.10
2023-04-09T22:41:57.380Z,25.70
2023-04-09T22:44:25.954Z,25.80
2023-04-09T22:46:54.427Z,25.80
2023-04-09T22:49:22.752Z,26.00
2023-04-09T22:51:50.963Z,26.00
2023-04-09T22:54:19.605Z,26.20
2023-04-09T22:56:47.936Z,26.20
2023-04-09T22:59:17.448Z,26.00
2023-04-09T23:01:45.777Z,26.30
2023-04-09T23:04:14.334Z,26.50
2023-04-09T23:06:42.650Z,26.20
2023-04-09T23:09:11.250Z,26.00
2023-04-09T23:11:39.440Z,25.90
2023-04-09T23:14:07.728Z,25.80
2023-04-09T23:16:36.274Z,25.80
2023-04-09T23:19:04.723Z,25.70
2023-04-09T23:21:32.980Z,26.10
2023-04-09T23:24:01.415Z,26.10
2023-04-09T23:26:29.667Z,25.90
2023-04-09T23:28:57.968Z,25.70
2023-04-09T23:31:26.093Z,25.60
2023-04-09T23:33:54.634Z,25.60
2023-04-09T23:36:23.033Z,25.70
2023-04-09T23:38:51.365Z,25.90
2023-04-09T23:41:19.475Z,26.10
2023-04-09T23:43:47.665Z,26.50
2023-04-09T23:46:15.935Z,26.60
2023-04-09T23:48:44.085Z,26.60
2023-04-09T23:51:21.519Z,26.80
2023-04-09T23:53:49.861Z,26.70
2023-04-09T23:56:18.224Z,26.30
2023-04-09T23:58:46.371Z,26.30
